Walsh Station, California
Current Conditions -  °F | °C
As of 8:45 AM on Thursday 23 Oct 2014 (Local Time) from KMHR Reporting Station
Broken Clouds Broken Clouds  
Wind Chill: 59°   Ceiling: 20000
Heat Index: 59°   Visibility: 10mi
Dew Point: 45°   Wind: 3mph
Humidity: 59%   Direction: 180°S
Pressure: 30.06"   Gusts: NA
Location:  38.5421°N, 121.377°W
Report Text: KMHR 231545Z 18003KT 10SM BKN200 15/07 A3006
Loading
Personal Weather Stations






























Interactive Weather Map
Tropical Storm Tracking
New forecast layout! Learn more

10-Day Weather Forecast

Advertisements
Track Severe Weather on mobile